Hovedside
METAR-TAF:

METAR-TAF

Lufthavner :

Helsingfors-Vanda lufthavn

Helsingfors, Finland

breddegrad: 60-19N, lengdegrad: 024-58E, høyde over havet: 51 m

Gjeldene værobservasjon

Denne rapporten ble laget for 21 minutter siden, klokken 06:50 UTC
Vind 5 kt fra Vest, skiftende mellom Sørvest og Nordvest
Temperatur 17°C
Luftfuktighet 63%
Trykk 1011 hPa
Sikt 10 km eller mer
Få skyer i en høyde av 3000 ft

METAR: EFHK 140650Z 27005KT 230V310 9999 FEW030 17/10 Q1011 NOSIG

Tid: 10:11 (07:11 UTC)

Varsel

Denne rapporten ble laget for 1 time og 41 minutter siden, klokken 05:30 UTC
Varsel gyldig fra 14. klokken 06 UTC til 15. klokken 06 UTC
Vind 5 kt fra Vest-sørvest
Sikt 10 km eller mer
ingen skyer under 1500 m og ingen bygeskyer
Sannsynlighet 40%
fra 14. klokken 11 UTC til 14. klokken 13 UTC
Få skyer i en høyde av 4000 ft, Tårnskyer (cumulus).

TAF: EFHK 140530Z 1406/1506 25005KT CAVOK PROB40 1411/1413 FEW040TCU

Værobservasjoner og værvarsel for over 4000 flyplasser (METAR- og TAF-rapporter).

Tilgjengelige stasjoner er representert av de røde og gule prikkene på kartet.

Hold musepekeren over prikken for å se navnet på stasjonen.

Klikk så for å se værobservasjoner og -varsler.

For å forandre kartet kan du klikke på den grønne knappen med svart kryss for å zoome inn, på den grønne knappen med strek for å zoome ut, eller på de grønne pilene for å se tilstøtende kart.


METAR-TAF: